createdAt,value
2018-01-25T00:01:39.282Z,1.80
2018-01-25T00:04:07.531Z,1.70
2018-01-25T00:06:35.892Z,2.03
2018-01-25T00:09:04.898Z,1.93
2018-01-25T00:11:33.179Z,1.73
2018-01-25T00:14:01.479Z,3.10
2018-01-25T00:16:29.762Z,2.77
2018-01-25T00:18:58.224Z,2.40
2018-01-25T00:21:27.455Z,2.40
2018-01-25T00:23:55.781Z,2.53
2018-01-25T00:26:24.084Z,2.10
2018-01-25T00:28:52.527Z,1.90
2018-01-25T00:31:20.813Z,1.93
2018-01-25T00:36:23.707Z,1.77
2018-01-25T00:38:52.067Z,1.57
2018-01-25T00:41:20.362Z,1.43
2018-01-25T00:43:48.779Z,1.40
2018-01-25T00:46:17.055Z,1.37
2018-01-25T00:48:45.308Z,1.50
2018-01-25T00:51:13.751Z,1.20
2018-01-25T00:53:42.863Z,1.50
2018-01-25T00:56:11.143Z,1.13
2018-01-25T00:58:39.398Z,1.57
2018-01-25T01:01:07.779Z,1.67
2018-01-25T01:03:36.052Z,1.50
2018-01-25T01:06:05.071Z,1.50
2018-01-25T01:08:33.393Z,1.47
2018-01-25T01:11:01.695Z,1.40
2018-01-25T01:13:29.958Z,1.30
2018-01-25T01:15:58.981Z,1.30
2018-01-25T01:18:27.299Z,1.43
2018-01-25T01:20:55.569Z,1.63
2018-01-25T01:23:23.869Z,1.30
2018-01-25T01:25:52.899Z,1.57
2018-01-25T01:28:21.131Z,1.70
2018-01-25T01:30:50.159Z,1.40
2018-01-25T01:33:18.426Z,1.30
2018-01-25T01:35:46.816Z,1.30
2018-01-25T01:38:15.078Z,1.60
2018-01-25T01:40:43.328Z,1.30
2018-01-25T01:43:12.383Z,1.00
2018-01-25T01:45:40.610Z,1.10
2018-01-25T01:48:08.968Z,1.40
2018-01-25T01:50:37.370Z,1.10
2018-01-25T01:53:05.753Z,1.20
2018-01-25T01:55:34.002Z,1.30
2018-01-25T01:58:03.025Z,1.10
2018-01-25T02:00:31.283Z,1.10
2018-01-25T02:03:00.342Z,1.20
2018-01-25T02:05:28.585Z,1.43
2018-01-25T02:07:56.829Z,1.80
2018-01-25T02:10:25.083Z,2.10
2018-01-25T02:12:54.119Z,2.53
2018-01-25T02:15:23.174Z,3.20
2018-01-25T02:17:52.431Z,3.53
2018-01-25T02:20:20.679Z,3.67
2018-01-25T02:22:49.691Z,3.77
2018-01-25T02:25:18.036Z,3.90
2018-01-25T02:27:46.306Z,3.53
2018-01-25T02:30:15.326Z,3.20
2018-01-25T02:32:43.746Z,3.03
2018-01-25T02:35:12.761Z,2.17
2018-01-25T02:37:41.006Z,2.17
2018-01-25T02:40:09.495Z,1.73
2018-01-25T02:42:37.723Z,1.43
2018-01-25T02:45:05.998Z,1.40
2018-01-25T02:47:34.337Z,1.30
2018-01-25T02:50:03.457Z,1.30
2018-01-25T02:52:31.728Z,1.20
2018-01-25T02:54:59.954Z,1.30
2018-01-25T02:57:28.211Z,1.20
2018-01-25T02:59:56.543Z,1.40
2018-01-25T03:02:24.801Z,1.63
2018-01-25T03:04:53.828Z,1.03
2018-01-25T03:07:22.172Z,1.67
2018-01-25T03:09:50.481Z,1.53
2018-01-25T03:12:18.890Z,1.50
2018-01-25T03:14:47.205Z,1.40
2018-01-25T03:17:15.456Z,1.63
2018-01-25T03:19:43.704Z,1.50
2018-01-25T03:22:11.950Z,1.40
2018-01-25T03:24:40.278Z,2.17
2018-01-25T03:27:08.554Z,1.93
2018-01-25T03:29:36.974Z,2.07
2018-01-25T03:32:05.207Z,2.10
2018-01-25T03:34:33.498Z,2.30
2018-01-25T03:37:02.511Z,2.20
2018-01-25T03:39:30.813Z,2.30
2018-01-25T03:41:59.095Z,2.70
2018-01-25T03:44:27.440Z,2.40
2018-01-25T03:46:55.675Z,2.50
2018-01-25T03:49:23.936Z,2.10
2018-01-25T03:51:52.219Z,2.07
2018-01-25T03:54:21.356Z,2.43
2018-01-25T03:56:49.623Z,2.70
2018-01-25T03:59:18.761Z,3.00
2018-01-25T04:01:47.019Z,3.10
2018-01-25T04:04:15.267Z,3.37
2018-01-25T04:06:43.559Z,3.63
2018-01-25T04:09:11.798Z,4.33
2018-01-25T04:11:40.842Z,4.37
2018-01-25T04:14:09.206Z,4.40
2018-01-25T04:16:37.483Z,4.33
2018-01-25T04:19:05.740Z,3.87
2018-01-25T04:21:33.993Z,4.20
2018-01-25T04:24:03.018Z,4.03
2018-01-25T04:26:31.298Z,3.83
2018-01-25T04:28:59.569Z,3.80
2018-01-25T04:31:27.820Z,3.70
2018-01-25T04:33:56.847Z,3.07
2018-01-25T04:36:25.209Z,3.00
2018-01-25T04:38:53.501Z,3.37
2018-01-25T04:41:21.859Z,3.20
2018-01-25T04:43:51.069Z,3.63
2018-01-25T04:46:19.311Z,2.90
2018-01-25T04:48:48.381Z,2.83
2018-01-25T04:51:16.714Z,2.73
2018-01-25T04:53:45.002Z,2.30
2018-01-25T04:56:13.253Z,2.60
2018-01-25T04:58:41.486Z,2.00
2018-01-25T05:01:10.582Z,2.10
2018-01-25T05:03:38.937Z,2.00
2018-01-25T05:06:07.203Z,2.33
2018-01-25T05:08:35.575Z,1.30
2018-01-25T05:11:03.914Z,1.40
2018-01-25T05:13:32.929Z,1.60
2018-01-25T05:16:01.221Z,1.83
2018-01-25T05:18:29.587Z,1.60
2018-01-25T05:20:57.857Z,1.57
2018-01-25T05:23:26.114Z,1.77
2018-01-25T05:25:54.421Z,1.40
2018-01-25T05:28:22.675Z,2.13
2018-01-25T05:30:50.947Z,1.57
2018-01-25T05:33:19.194Z,2.07
2018-01-25T05:35:48.223Z,1.60
2018-01-25T05:38:17.462Z,1.70
2018-01-25T05:40:45.757Z,1.90
2018-01-25T05:43:14.781Z,1.50
2018-01-25T05:45:43.133Z,1.53
2018-01-25T05:48:12.146Z,2.00
2018-01-25T05:50:40.385Z,1.80
2018-01-25T05:53:09.423Z,2.03
2018-01-25T05:55:37.677Z,1.87
2018-01-25T05:58:06.054Z,1.90
2018-01-25T06:00:34.309Z,1.63
2018-01-25T06:03:03.362Z,1.80
2018-01-25T06:05:31.642Z,1.93
2018-01-25T06:07:59.971Z,2.00
2018-01-25T06:10:28.211Z,1.90
2018-01-25T06:12:58.182Z,2.20
2018-01-25T06:15:26.429Z,2.30
2018-01-25T06:17:54.710Z,1.93
2018-01-25T06:20:23.006Z,2.20
2018-01-25T06:22:51.335Z,1.70
2018-01-25T06:25:19.597Z,1.80
2018-01-25T06:27:47.907Z,1.80
2018-01-25T06:30:17.113Z,1.73
2018-01-25T06:32:45.348Z,1.80
2018-01-25T06:35:15.122Z,1.73
2018-01-25T06:37:43.366Z,2.30
2018-01-25T06:40:11.640Z,2.40
2018-01-25T06:42:39.954Z,2.30
2018-01-25T06:45:08.205Z,2.87
2018-01-25T06:47:36.577Z,2.80
2018-01-25T06:50:04.834Z,2.63
2018-01-25T06:52:33.138Z,3.43
2018-01-25T06:55:01.483Z,3.53
2018-01-25T06:57:29.765Z,3.80
2018-01-25T06:59:58.883Z,3.63
2018-01-25T07:02:27.131Z,3.60
2018-01-25T07:04:56.185Z,4.10
2018-01-25T07:07:24.413Z,4.73
2018-01-25T07:09:52.654Z,4.37
2018-01-25T07:12:20.975Z,4.03
2018-01-25T07:14:49.234Z,4.03
2018-01-25T07:17:17.510Z,4.50
2018-01-25T07:19:45.850Z,5.00
2018-01-25T07:22:14.882Z,4.80
2018-01-25T07:24:43.178Z,5.37
2018-01-25T07:27:11.458Z,5.40
2018-01-25T07:29:39.710Z,4.80
2018-01-25T07:32:08.131Z,5.80
2018-01-25T07:34:36.413Z,5.17
2018-01-25T07:37:04.662Z,5.97
2018-01-25T07:39:32.929Z,6.13
2018-01-25T07:42:01.218Z,6.27
2018-01-25T07:44:29.467Z,5.93
2018-01-25T07:46:57.735Z,5.80
2018-01-25T07:49:26.011Z,5.60
2018-01-25T07:51:54.249Z,5.67
2018-01-25T07:54:23.331Z,6.70
2018-01-25T07:56:51.558Z,5.87
2018-01-25T07:59:19.822Z,5.70
2018-01-25T08:01:48.095Z,5.43
2018-01-25T08:04:16.337Z,6.20
2018-01-25T08:06:44.591Z,5.67
2018-01-25T08:09:12.922Z,6.27
2018-01-25T08:11:41.167Z,5.80
2018-01-25T08:14:10.242Z,5.83
2018-01-25T08:16:39.273Z,5.63
2018-01-25T08:19:07.554Z,5.30
2018-01-25T08:21:35.791Z,6.57
2018-01-25T08:24:04.096Z,5.87
2018-01-25T08:26:32.336Z,6.10
2018-01-25T08:29:00.665Z,5.43
2018-01-25T08:31:28.966Z,4.50
2018-01-25T08:33:57.238Z,4.47
2018-01-25T08:36:25.527Z,5.00
2018-01-25T08:38:53.781Z,4.30
2018-01-25T08:41:22.039Z,4.30
2018-01-25T08:43:50.288Z,4.97
2018-01-25T08:46:19.341Z,4.60
2018-01-25T08:48:47.580Z,4.37
2018-01-25T08:51:15.833Z,4.53
2018-01-25T08:53:44.883Z,3.90
2018-01-25T08:56:13.141Z,4.00
2018-01-25T08:58:41.384Z,3.13
2018-01-25T09:01:09.642Z,3.77
2018-01-25T09:03:38.667Z,3.70
2018-01-25T09:06:06.920Z,3.57
2018-01-25T09:08:35.261Z,4.10
2018-01-25T09:11:04.451Z,3.37
2018-01-25T09:13:32.717Z,2.87
2018-01-25T09:16:00.947Z,2.70
2018-01-25T09:18:29.231Z,2.70
2018-01-25T09:20:57.691Z,2.83
2018-01-25T09:23:26.715Z,2.67
2018-01-25T09:25:56.241Z,2.30
2018-01-25T09:28:24.504Z,2.90
2018-01-25T09:30:52.763Z,2.73
2018-01-25T09:33:21.080Z,2.70
2018-01-25T09:35:49.278Z,2.00
2018-01-25T09:38:18.349Z,2.10
2018-01-25T09:40:46.551Z,2.50
2018-01-25T09:43:15.657Z,3.03
2018-01-25T09:45:43.867Z,2.47
2018-01-25T09:48:12.082Z,3.40
2018-01-25T09:50:41.112Z,2.83
2018-01-25T09:53:09.382Z,3.37
2018-01-25T09:55:37.707Z,3.13
2018-01-25T09:58:06.725Z,2.70
2018-01-25T10:00:35.043Z,3.40
2018-01-25T10:03:03.332Z,3.33
2018-01-25T10:05:31.623Z,2.97
2018-01-25T10:08:00.009Z,3.57
2018-01-25T10:10:28.322Z,3.90
2018-01-25T10:12:56.656Z,3.83
2018-01-25T10:15:24.887Z,3.60
2018-01-25T10:17:53.182Z,3.23
2018-01-25T10:20:21.693Z,3.60
2018-01-25T10:22:49.940Z,3.90
2018-01-25T10:25:18.213Z,3.97
2018-01-25T10:27:46.488Z,3.67
2018-01-25T10:30:14.737Z,3.47
2018-01-25T10:32:43.019Z,3.60
2018-01-25T10:35:11.252Z,2.67
2018-01-25T10:37:40.262Z,3.40
2018-01-25T10:40:08.580Z,3.07
2018-01-25T10:42:36.811Z,2.97
2018-01-25T10:45:05.142Z,3.33
2018-01-25T10:47:33.388Z,3.47
2018-01-25T10:50:01.654Z,2.97
2018-01-25T10:52:29.903Z,3.00
2018-01-25T10:54:58.943Z,3.80
2018-01-25T10:57:27.188Z,2.97
2018-01-25T10:59:55.466Z,3.63
2018-01-25T11:02:23.738Z,3.63
2018-01-25T11:04:52.005Z,3.73
2018-01-25T11:07:20.421Z,2.90
2018-01-25T11:09:49.448Z,3.53
2018-01-25T11:12:17.648Z,3.03
2018-01-25T11:14:45.936Z,2.97
2018-01-25T11:17:14.229Z,3.10
2018-01-25T11:19:42.546Z,3.23
2018-01-25T11:22:11.771Z,3.30
2018-01-25T11:24:40.064Z,3.27
2018-01-25T11:27:08.338Z,4.07
2018-01-25T11:29:36.622Z,2.80
2018-01-25T11:32:04.882Z,4.17
2018-01-25T11:34:33.182Z,4.27
2018-01-25T11:37:01.448Z,3.23
2018-01-25T11:39:29.715Z,3.70
2018-01-25T11:41:57.973Z,3.30
2018-01-25T11:44:26.223Z,3.17
2018-01-25T11:46:55.401Z,2.97
2018-01-25T11:49:23.653Z,3.27
2018-01-25T11:51:52.059Z,3.23
2018-01-25T11:54:21.089Z,3.63
2018-01-25T11:56:49.361Z,3.40
2018-01-25T11:59:17.639Z,3.80
2018-01-25T12:01:45.968Z,3.50
2018-01-25T12:04:14.171Z,3.60
2018-01-25T12:06:42.433Z,3.37
2018-01-25T12:09:10.742Z,3.13
2018-01-25T12:11:39.188Z,3.03
2018-01-25T12:14:08.232Z,3.50
2018-01-25T12:16:36.587Z,3.90
2018-01-25T12:19:05.614Z,3.20
2018-01-25T12:21:34.003Z,2.90
2018-01-25T12:24:02.297Z,3.27
2018-01-25T12:26:31.337Z,3.13
2018-01-25T12:28:59.594Z,2.90
2018-01-25T12:31:27.880Z,3.50
2018-01-25T12:33:56.146Z,3.77
2018-01-25T12:36:24.418Z,3.77
2018-01-25T12:38:52.658Z,3.50
2018-01-25T12:41:21.719Z,4.57
2018-01-25T12:43:50.022Z,3.50
2018-01-25T12:46:18.393Z,4.00
2018-01-25T12:48:46.656Z,3.57
2018-01-25T12:51:14.914Z,3.13
2018-01-25T12:53:43.204Z,3.97
2018-01-25T12:56:11.594Z,3.77
2018-01-25T12:58:40.905Z,3.63
2018-01-25T13:01:09.190Z,3.63
2018-01-25T13:03:37.447Z,3.17
2018-01-25T13:06:05.724Z,3.50
2018-01-25T13:08:33.960Z,3.27
2018-01-25T13:11:02.221Z,4.07
2018-01-25T13:13:30.509Z,2.93
2018-01-25T13:15:58.780Z,3.90
2018-01-25T13:18:27.055Z,3.20
2018-01-25T13:20:55.310Z,3.73
2018-01-25T13:23:23.583Z,3.17
2018-01-25T13:25:51.920Z,3.23
2018-01-25T13:28:21.695Z,3.90
2018-01-25T13:30:49.952Z,3.37
2018-01-25T13:33:18.237Z,2.87
2018-01-25T13:35:46.506Z,3.60
2018-01-25T13:38:14.755Z,3.10
2018-01-25T13:40:43.828Z,3.07
2018-01-25T13:43:12.855Z,3.00
2018-01-25T13:45:41.180Z,3.10
2018-01-25T13:48:09.435Z,3.20
2018-01-25T13:50:38.007Z,3.23
2018-01-25T13:53:06.329Z,3.07
2018-01-25T13:55:34.578Z,3.50
2018-01-25T13:58:02.921Z,3.17
2018-01-25T14:00:31.166Z,3.07
2018-01-25T14:03:00.230Z,3.50
2018-01-25T14:05:28.529Z,3.60
2018-01-25T14:07:57.555Z,3.60
2018-01-25T14:10:25.836Z,3.60
2018-01-25T14:12:54.107Z,3.70
2018-01-25T14:15:22.455Z,3.53
2018-01-25T14:17:50.806Z,3.57
2018-01-25T14:20:19.860Z,3.43
2018-01-25T14:22:48.190Z,3.97
2018-01-25T14:25:17.202Z,3.53
2018-01-25T14:27:45.467Z,3.97
2018-01-25T14:30:14.485Z,3.53
2018-01-25T14:32:42.740Z,3.50
2018-01-25T14:35:11.015Z,3.03
2018-01-25T14:37:40.198Z,3.50
2018-01-25T14:40:09.242Z,3.07
2018-01-25T14:42:37.561Z,2.83
2018-01-25T14:45:05.802Z,3.10
2018-01-25T14:47:34.087Z,3.10
2018-01-25T14:50:02.383Z,3.23
2018-01-25T14:52:30.667Z,3.00
2018-01-25T14:54:59.737Z,3.43
2018-01-25T14:57:28.010Z,3.63
2018-01-25T14:59:56.375Z,3.50
2018-01-25T15:02:24.622Z,3.97
2018-01-25T15:04:53.256Z,3.80
2018-01-25T15:07:21.668Z,3.53
2018-01-25T15:09:50.079Z,3.93
2018-01-25T15:12:18.334Z,4.23
2018-01-25T15:14:46.642Z,3.50
2018-01-25T15:17:14.894Z,3.80
2018-01-25T15:19:43.202Z,3.40
2018-01-25T15:22:11.488Z,2.77
2018-01-25T15:24:39.764Z,4.10
2018-01-25T15:27:08.010Z,3.80
2018-01-25T15:29:36.379Z,3.43
2018-01-25T15:32:04.641Z,3.20
2018-01-25T15:34:33.065Z,3.27
2018-01-25T15:37:01.373Z,3.00
2018-01-25T15:39:30.394Z,3.20
2018-01-25T15:41:58.690Z,3.10
2018-01-25T15:44:26.958Z,3.03
2018-01-25T15:46:55.268Z,2.40
2018-01-25T15:49:24.298Z,2.27
2018-01-25T15:51:52.636Z,1.80
2018-01-25T15:54:20.839Z,1.87
2018-01-25T15:56:49.878Z,1.50
2018-01-25T15:59:18.107Z,1.10
2018-01-25T16:01:46.363Z,1.37
2018-01-25T16:04:15.444Z,0.80
2018-01-25T16:06:43.818Z,0.77
2018-01-25T16:09:12.081Z,1.20
2018-01-25T16:11:40.330Z,1.13
2018-01-25T16:14:08.602Z,1.40
2018-01-25T16:16:37.072Z,1.30
2018-01-25T16:19:06.255Z,1.30
2018-01-25T16:21:34.536Z,0.83
2018-01-25T16:24:02.807Z,1.20
2018-01-25T16:26:31.785Z,1.40
2018-01-25T16:29:00.846Z,1.70
2018-01-25T16:31:29.111Z,1.60
2018-01-25T16:33:57.514Z,1.57
2018-01-25T16:36:25.783Z,2.00
2018-01-25T16:38:54.058Z,1.77
2018-01-25T16:41:22.299Z,1.50
2018-01-25T16:43:50.785Z,1.90
2018-01-25T16:46:19.118Z,1.73
2018-01-25T16:48:48.087Z,1.87
2018-01-25T16:51:16.378Z,1.60
2018-01-25T16:53:44.790Z,1.70
2018-01-25T16:56:13.085Z,1.80
2018-01-25T16:58:41.418Z,1.60
2018-01-25T17:01:09.667Z,1.40
2018-01-25T17:03:38.014Z,1.53
2018-01-25T17:06:06.279Z,1.40
2018-01-25T17:08:34.526Z,1.50
2018-01-25T17:11:02.779Z,1.83
2018-01-25T17:13:31.803Z,1.97
2018-01-25T17:16:00.217Z,1.73
2018-01-25T17:18:28.451Z,1.90
2018-01-25T17:20:56.711Z,2.07
2018-01-25T17:23:25.717Z,2.30
2018-01-25T17:25:53.988Z,2.10
2018-01-25T17:28:22.257Z,2.20
2018-01-25T17:30:50.550Z,2.63
2018-01-25T17:33:18.833Z,2.70
2018-01-25T17:35:47.085Z,3.03
2018-01-25T17:38:15.430Z,3.20
2018-01-25T17:40:43.693Z,2.73
2018-01-25T17:43:11.967Z,3.37
2018-01-25T17:45:40.207Z,2.73
2018-01-25T17:48:10.342Z,3.57
2018-01-25T17:50:38.584Z,3.27
2018-01-25T17:53:06.823Z,3.10
2018-01-25T17:55:35.871Z,3.10
2018-01-25T17:58:04.139Z,2.83
2018-01-25T18:00:32.401Z,3.13
2018-01-25T18:03:01.418Z,2.47
2018-01-25T18:05:29.659Z,2.83
2018-01-25T18:07:57.932Z,2.40
2018-01-25T18:10:26.202Z,2.50
2018-01-25T18:12:54.461Z,2.80
2018-01-25T18:15:22.826Z,2.70
2018-01-25T18:17:51.053Z,2.87
2018-01-25T18:20:19.327Z,2.73
2018-01-25T18:22:47.608Z,2.40
2018-01-25T18:25:15.838Z,2.43
2018-01-25T18:27:44.864Z,1.90
2018-01-25T18:30:13.145Z,1.97
2018-01-25T18:32:41.386Z,1.93
2018-01-25T18:35:10.417Z,2.30
2018-01-25T18:37:38.684Z,2.30
2018-01-25T18:40:06.923Z,1.83
2018-01-25T18:42:36.059Z,2.00
2018-01-25T18:45:04.514Z,2.13
2018-01-25T18:47:33.515Z,2.23
2018-01-25T18:50:01.785Z,2.30
2018-01-25T18:52:30.049Z,2.10
2018-01-25T18:54:58.351Z,2.37
2018-01-25T18:57:26.596Z,2.77
2018-01-25T18:59:54.900Z,2.50
2018-01-25T19:02:23.180Z,3.27
2018-01-25T19:04:51.545Z,2.90
2018-01-25T19:07:19.844Z,3.30
2018-01-25T19:09:48.105Z,3.47
2018-01-25T19:12:16.407Z,3.33
2018-01-25T19:14:44.689Z,3.10
2018-01-25T19:17:12.928Z,3.80
2018-01-25T19:19:41.173Z,2.97
2018-01-25T19:22:09.631Z,3.77
2018-01-25T19:24:38.763Z,3.37
2018-01-25T19:27:07.022Z,4.03
2018-01-25T19:29:35.376Z,3.70
2018-01-25T19:32:03.635Z,3.23
2018-01-25T19:34:31.984Z,4.20
2018-01-25T19:37:00.266Z,3.30
2018-01-25T19:39:28.572Z,3.63
2018-01-25T19:41:56.794Z,3.40
2018-01-25T19:44:25.042Z,3.30
2018-01-25T19:46:53.320Z,2.50
2018-01-25T19:49:22.362Z,2.03
2018-01-25T19:51:50.623Z,2.50
2018-01-25T19:54:18.934Z,2.40
2018-01-25T19:56:48.177Z,2.30
2018-01-25T19:59:16.424Z,2.63
2018-01-25T20:01:47.882Z,2.70
2018-01-25T20:04:16.898Z,2.53
2018-01-25T20:06:45.349Z,2.97
2018-01-25T20:09:14.427Z,3.20
2018-01-25T20:11:42.725Z,3.17
2018-01-25T20:14:12.202Z,2.73
2018-01-25T20:16:42.149Z,3.47
2018-01-25T20:19:11.230Z,3.60
2018-01-25T20:21:39.538Z,3.67
2018-01-25T20:24:07.786Z,3.70
2018-01-25T20:26:36.167Z,3.93
2018-01-25T20:29:05.325Z,5.57
2018-01-25T20:31:33.610Z,5.37
2018-01-25T20:34:01.903Z,4.93
2018-01-25T20:39:05.459Z,5.20
2018-01-25T20:41:33.751Z,6.37
2018-01-25T20:44:02.786Z,6.03
2018-01-25T20:46:31.826Z,6.60
2018-01-25T20:49:00.067Z,6.40
2018-01-25T20:51:28.328Z,6.13
2018-01-25T20:53:57.345Z,7.07
2018-01-25T20:56:25.595Z,6.47
2018-01-25T20:58:54.638Z,7.00
2018-01-25T21:01:22.899Z,6.40
2018-01-25T21:03:51.157Z,7.57
2018-01-25T21:06:19.435Z,7.27
2018-01-25T21:08:47.706Z,6.60
2018-01-25T21:11:15.988Z,6.53
2018-01-25T21:13:44.435Z,7.50
2018-01-25T21:16:13.460Z,8.17
2018-01-25T21:18:41.722Z,8.20
2018-01-25T21:21:10.057Z,9.77
2018-01-25T21:23:38.324Z,11.73
2018-01-25T21:26:07.400Z,11.00
2018-01-25T21:28:35.871Z,10.27
2018-01-25T21:31:04.274Z,9.90
2018-01-25T21:33:32.604Z,9.50
2018-01-25T21:36:00.880Z,9.47
2018-01-25T21:38:29.184Z,10.40
2018-01-25T21:40:57.583Z,9.53
2018-01-25T21:43:27.433Z,9.53
2018-01-25T21:45:55.706Z,10.17
2018-01-25T21:48:24.147Z,12.57
2018-01-25T21:50:52.377Z,15.47
2018-01-25T21:53:20.643Z,12.30
2018-01-25T21:55:48.942Z,14.53
2018-01-25T21:58:17.371Z,15.43
2018-01-25T22:00:45.711Z,18.63
2018-01-25T22:03:15.490Z,19.67
2018-01-25T22:05:43.759Z,23.53
2018-01-25T22:08:12.003Z,20.73
2018-01-25T22:10:41.063Z,22.67
2018-01-25T22:13:09.364Z,17.43
2018-01-25T22:15:38.555Z,14.90
2018-01-25T22:18:06.802Z,11.20
2018-01-25T22:20:35.070Z,11.63
2018-01-25T22:23:03.322Z,12.67
2018-01-25T22:25:31.595Z,19.33
2018-01-25T22:27:59.885Z,24.77
2018-01-25T22:30:28.165Z,31.00
2018-01-25T22:32:56.541Z,46.33
2018-01-25T22:35:24.822Z,58.10
2018-01-25T22:37:53.099Z,60.20
2018-01-25T22:40:21.382Z,41.27
2018-01-25T22:42:49.668Z,28.20
2018-01-25T22:45:17.980Z,19.03
2018-01-25T22:47:47.187Z,13.83
2018-01-25T22:50:15.450Z,10.17
2018-01-25T22:52:43.726Z,9.63
2018-01-25T22:55:11.996Z,9.57
2018-01-25T22:57:41.883Z,8.83
2018-01-25T23:00:10.125Z,9.77
2018-01-25T23:02:38.390Z,10.37
2018-01-25T23:05:06.673Z,10.00
2018-01-25T23:07:34.930Z,9.03
2018-01-25T23:10:03.194Z,8.77
2018-01-25T23:12:31.467Z,8.30
2018-01-25T23:14:59.830Z,10.13
2018-01-25T23:17:28.853Z,8.97
2018-01-25T23:19:57.105Z,9.70
2018-01-25T23:22:25.366Z,9.60
2018-01-25T23:24:53.645Z,9.87
2018-01-25T23:27:22.678Z,9.70
2018-01-25T23:29:50.993Z,9.87
2018-01-25T23:32:19.218Z,9.53
2018-01-25T23:34:47.500Z,9.60
2018-01-25T23:37:15.763Z,9.70
2018-01-25T23:39:44.101Z,9.13
2018-01-25T23:42:13.133Z,8.20
2018-01-25T23:44:41.416Z,9.47
2018-01-25T23:47:09.698Z,8.93
2018-01-25T23:49:37.946Z,9.20
2018-01-25T23:52:06.211Z,8.23
2018-01-25T23:54:35.224Z,8.33
2018-01-25T23:57:04.241Z,8.80
2018-01-25T23:59:32.515Z,9.73
